createdAt,value
2022-12-23T00:00:45.285Z,15.00
2022-12-23T00:03:12.715Z,12.85
2022-12-23T00:05:40.634Z,11.98
2022-12-23T00:08:08.690Z,12.43
2022-12-23T00:10:40.088Z,13.45
2022-12-23T00:13:27.240Z,14.20
2022-12-23T00:16:06.691Z,14.98
2022-12-23T00:18:34.977Z,14.57
2022-12-23T00:21:09.431Z,16.23
2022-12-23T00:23:39.300Z,12.73
2022-12-23T00:26:07.181Z,16.25
2022-12-23T00:28:34.501Z,14.07
2022-12-23T00:31:03.630Z,14.73
2022-12-23T00:33:37.832Z,14.43
2022-12-23T00:36:12.746Z,13.55
2022-12-23T00:38:58.511Z,16.17
2022-12-23T00:41:44.259Z,13.40
2022-12-23T00:44:11.620Z,16.23
2022-12-23T00:46:38.685Z,19.30
2022-12-23T00:49:24.722Z,19.23
2022-12-23T00:51:52.289Z,14.88
2022-12-23T00:54:57.382Z,16.88
2022-12-23T00:58:01.784Z,17.15
2022-12-23T01:01:25.388Z,17.05
2022-12-23T01:04:48.642Z,14.98
2022-12-23T01:07:53.250Z,12.37
2022-12-23T01:10:57.620Z,12.70
2022-12-23T01:13:24.704Z,19.13
2022-12-23T01:15:51.813Z,13.23
2022-12-23T01:18:19.395Z,18.35
2022-12-23T01:20:46.516Z,17.13
2022-12-23T01:23:13.599Z,13.90
2022-12-23T01:25:40.659Z,15.77
2022-12-23T01:30:52.265Z,20.17
2022-12-23T01:33:19.483Z,14.65
2022-12-23T01:35:47.280Z,17.10
2022-12-23T01:38:14.743Z,17.88
2022-12-23T01:43:51.935Z,16.88
2022-12-23T01:46:19.189Z,17.60
2022-12-23T01:48:51.978Z,17.67
2022-12-23T01:51:25.464Z,20.45
2022-12-23T01:53:59.034Z,16.65
2022-12-23T01:56:34.786Z,20.63
2022-12-23T02:02:37.778Z,18.65
2022-12-23T02:05:05.347Z,21.38
2022-12-23T02:07:51.722Z,23.60
2022-12-23T02:10:18.883Z,22.05
2022-12-23T02:13:10.129Z,22.80
2022-12-23T02:16:05.166Z,22.40
2022-12-23T02:19:14.615Z,24.05
2022-12-23T02:22:17.004Z,24.40
2022-12-23T02:24:52.625Z,25.45
2022-12-23T02:27:43.066Z,27.88
2022-12-23T02:34:09.489Z,24.88
2022-12-23T02:37:14.043Z,23.35
2022-12-23T02:40:18.564Z,21.10
2022-12-23T02:45:59.278Z,29.15
2022-12-23T02:48:35.474Z,28.00
2022-12-23T02:51:05.507Z,28.00
2022-12-23T02:56:28.428Z,22.97
2022-12-23T02:59:15.657Z,27.35
2022-12-23T03:04:29.204Z,26.60
2022-12-23T03:06:57.632Z,26.77
2022-12-23T03:09:45.141Z,29.23
2022-12-23T03:12:21.050Z,30.27
2022-12-23T03:15:18.678Z,25.88
2022-12-23T03:18:13.933Z,27.52
2022-12-23T03:21:07.060Z,27.70
2022-12-23T03:23:44.261Z,29.13
2022-12-23T03:26:38.102Z,25.95
2022-12-23T03:29:08.924Z,24.17
2022-12-23T03:31:38.046Z,24.92
2022-12-23T03:34:10.661Z,25.38
2022-12-23T03:42:29.284Z,25.15
2022-12-23T03:48:21.782Z,16.42
2022-12-23T03:51:26.255Z,21.48
2022-12-23T03:57:54.895Z,23.48
2022-12-23T04:00:59.987Z,28.05
2022-12-23T04:04:04.472Z,22.52
2022-12-23T04:07:09.421Z,25.98
2022-12-23T04:10:13.929Z,27.95
2022-12-23T04:13:18.607Z,24.55
2022-12-23T04:15:46.309Z,23.52
2022-12-23T04:18:13.753Z,27.10
2022-12-23T04:23:25.661Z,31.92
2022-12-23T04:34:06.652Z,27.40
2022-12-23T04:36:33.756Z,29.65
2022-12-23T04:43:00.308Z,19.08
2022-12-23T04:46:05.152Z,25.00
2022-12-23T04:58:39.221Z,20.17
2022-12-23T05:04:30.969Z,26.10
2022-12-23T05:10:20.838Z,25.83
2022-12-23T05:12:48.012Z,25.88
2022-12-23T05:17:59.458Z,18.48
2022-12-23T05:24:26.131Z,18.45
2022-12-23T05:27:30.468Z,18.27
2022-12-23T05:34:02.333Z,16.58
2022-12-23T05:37:10.185Z,14.52
2022-12-23T05:40:18.455Z,15.35
2022-12-23T05:43:26.167Z,15.07
2022-12-23T05:45:53.700Z,17.20
2022-12-23T05:48:20.991Z,17.92
2022-12-23T05:50:52.493Z,15.75
2022-12-23T05:53:20.512Z,19.92
2022-12-23T05:55:48.280Z,22.08
2022-12-23T05:58:15.811Z,16.80
2022-12-23T06:00:43.307Z,17.98
2022-12-23T06:03:12.110Z,20.02
2022-12-23T06:05:40.592Z,16.65
2022-12-23T06:10:52.487Z,20.10
2022-12-23T06:13:19.619Z,19.50
2022-12-23T06:16:24.443Z,19.42
2022-12-23T06:22:50.924Z,21.63
2022-12-23T06:25:55.875Z,22.05
2022-12-23T06:28:23.351Z,20.38
2022-12-23T06:30:54.525Z,25.60
2022-12-23T06:33:22.646Z,23.10
2022-12-23T06:35:50.057Z,24.95
2022-12-23T06:41:02.221Z,25.13
2022-12-23T06:43:29.208Z,25.83
2022-12-23T06:45:56.382Z,24.75
2022-12-23T06:48:23.626Z,25.63
2022-12-23T06:50:50.666Z,21.05
2022-12-23T06:53:17.789Z,24.88
2022-12-23T06:55:44.986Z,24.23
2022-12-23T06:58:12.235Z,22.75
2022-12-23T07:00:39.554Z,24.90
2022-12-23T07:03:06.624Z,22.92
2022-12-23T07:05:37.549Z,20.83
2022-12-23T07:08:05.642Z,24.00
2022-12-23T07:10:33.890Z,22.92
2022-12-23T07:20:03.925Z,26.92
2022-12-23T07:22:50.495Z,27.52
2022-12-23T07:28:40.001Z,32.10
2022-12-23T07:31:45.044Z,35.22
2022-12-23T07:34:49.655Z,31.35
2022-12-23T07:37:16.739Z,36.03
2022-12-23T07:39:44.106Z,33.47
2022-12-23T07:44:58.210Z,29.05
2022-12-23T07:50:10.117Z,26.25
2022-12-23T07:58:08.590Z,28.48
2022-12-23T08:03:20.232Z,35.80
2022-12-23T08:05:47.457Z,33.67
2022-12-23T08:08:14.698Z,33.55
2022-12-23T08:10:48.094Z,35.17
2022-12-23T08:16:02.035Z,36.70
2022-12-23T08:18:34.965Z,29.38
2022-12-23T08:23:31.337Z,32.47
2022-12-23T08:28:55.792Z,36.35
2022-12-23T08:34:10.686Z,38.92
2022-12-23T08:42:44.282Z,36.83
2022-12-23T08:45:49.022Z,34.88
2022-12-23T08:48:53.480Z,31.33
2022-12-23T08:51:57.703Z,31.92
2022-12-23T08:54:25.383Z,31.92
2022-12-23T08:56:52.533Z,25.40
2022-12-23T09:02:04.359Z,32.92
2022-12-23T09:05:09.428Z,25.38
2022-12-23T09:08:13.906Z,31.52
2022-12-23T09:11:18.391Z,30.25
2022-12-23T09:14:22.819Z,29.15
2022-12-23T09:17:27.265Z,44.25
2022-12-23T09:22:38.910Z,30.92
2022-12-23T09:25:06.324Z,35.47
2022-12-23T09:30:55.661Z,106.30
2022-12-23T09:34:00.159Z,65.82
2022-12-23T09:37:04.725Z,56.13
2022-12-23T09:40:09.056Z,45.78
2022-12-23T09:43:13.334Z,60.88
2022-12-23T09:46:17.927Z,41.60
2022-12-23T09:52:44.253Z,38.38
2022-12-23T09:55:48.600Z,40.95
2022-12-23T09:58:52.916Z,59.65
2022-12-23T10:01:57.709Z,42.03
2022-12-23T10:05:03.467Z,33.30
2022-12-23T10:08:08.451Z,33.47
2022-12-23T10:11:13.055Z,31.85
2022-12-23T10:17:40.101Z,32.28
2022-12-23T10:25:52.411Z,25.90
2022-12-23T10:28:19.655Z,28.15
2022-12-23T10:31:17.316Z,28.15
2022-12-23T10:34:13.659Z,25.65
2022-12-23T10:36:57.866Z,26.52
2022-12-23T10:39:45.553Z,30.98
2022-12-23T10:42:18.688Z,30.40
2022-12-23T10:44:51.371Z,39.83
2022-12-23T10:47:39.883Z,29.20
2022-12-23T10:50:27.307Z,29.35
2022-12-23T10:52:58.410Z,29.38
2022-12-23T10:55:33.766Z,26.58
2022-12-23T10:58:18.441Z,23.95
2022-12-23T11:00:53.569Z,26.05
2022-12-23T11:03:28.642Z,24.88
2022-12-23T11:05:58.114Z,23.00
2022-12-23T11:08:29.273Z,21.13
2022-12-23T11:10:56.918Z,22.73
2022-12-23T11:13:45.468Z,24.83
2022-12-23T11:16:26.056Z,22.60
2022-12-23T11:19:05.535Z,27.17
2022-12-23T11:21:33.992Z,27.80
2022-12-23T11:24:17.952Z,24.30
2022-12-23T11:27:00.614Z,21.40
2022-12-23T11:29:44.498Z,29.42
2022-12-23T11:32:24.478Z,41.55
2022-12-23T11:34:52.793Z,19.08
2022-12-23T11:37:35.107Z,23.23
2022-12-23T11:40:04.812Z,26.13
2022-12-23T11:43:09.680Z,22.85
2022-12-23T11:46:14.337Z,28.98
2022-12-23T11:49:19.060Z,25.40
2022-12-23T11:55:45.990Z,22.25
2022-12-23T12:02:13.407Z,19.30
2022-12-23T12:08:40.084Z,20.27
2022-12-23T12:15:06.719Z,22.90
2022-12-23T12:18:11.146Z,26.05
2022-12-23T12:21:16.164Z,21.67
2022-12-23T12:24:20.876Z,24.52
2022-12-23T12:29:54.147Z,21.45
2022-12-23T12:32:38.775Z,22.10
2022-12-23T12:35:16.955Z,22.13
2022-12-23T12:45:06.930Z,19.42
2022-12-23T12:54:32.512Z,19.25
2022-12-23T12:59:45.507Z,19.30
2022-12-23T13:02:28.780Z,19.88
2022-12-23T13:08:37.962Z,18.42
2022-12-23T13:11:28.195Z,18.48
2022-12-23T13:18:00.337Z,17.73
2022-12-23T13:30:23.924Z,16.05
2022-12-23T13:33:09.766Z,63.13
2022-12-23T13:47:07.480Z,12.70
2022-12-23T13:53:33.984Z,5.95
2022-12-23T13:56:38.363Z,8.45
2022-12-23T13:59:42.953Z,8.60
2022-12-23T14:02:47.723Z,10.02
2022-12-23T14:08:43.066Z,11.05
2022-12-23T14:14:04.420Z,13.75
2022-12-23T14:19:27.488Z,6.63
2022-12-23T14:22:13.082Z,8.65
2022-12-23T14:25:06.128Z,5.85
2022-12-23T14:27:49.294Z,10.02
2022-12-23T14:30:45.942Z,5.63
2022-12-23T14:33:18.765Z,17.08
2022-12-23T14:35:45.854Z,7.50
2022-12-23T14:38:15.873Z,9.23
2022-12-23T14:40:43.148Z,7.10
2022-12-23T14:43:48.169Z,6.68
2022-12-23T14:46:53.004Z,6.47
2022-12-23T14:49:57.655Z,5.65
2022-12-23T14:53:02.312Z,6.35
2022-12-23T14:59:28.864Z,7.10
2022-12-23T15:01:59.120Z,7.43
2022-12-23T15:04:30.608Z,4.90
2022-12-23T15:07:06.275Z,5.40
2022-12-23T15:13:08.061Z,18.33
2022-12-23T15:16:12.980Z,8.63
2022-12-23T15:19:17.548Z,5.40
2022-12-23T15:22:28.481Z,6.57
2022-12-23T15:25:37.193Z,7.32
2022-12-23T15:28:42.003Z,6.43
2022-12-23T15:31:47.213Z,6.10
2022-12-23T15:34:51.779Z,6.43
2022-12-23T15:37:26.846Z,6.07
2022-12-23T15:40:03.369Z,8.30
2022-12-23T15:43:11.267Z,9.60
2022-12-23T15:45:42.911Z,6.03
2022-12-23T15:48:30.548Z,8.25
2022-12-23T15:54:36.907Z,6.90
2022-12-23T15:57:44.994Z,8.27
2022-12-23T16:00:54.270Z,9.05
2022-12-23T16:03:58.708Z,8.85
2022-12-23T16:07:03.559Z,10.18
2022-12-23T16:10:08.044Z,11.05
2022-12-23T16:13:12.475Z,14.88
2022-12-23T16:16:17.071Z,12.75
2022-12-23T16:18:47.636Z,14.55
2022-12-23T16:21:15.551Z,15.07
2022-12-23T16:23:50.480Z,15.13
2022-12-23T16:26:18.149Z,11.52
2022-12-23T16:28:49.494Z,11.25
2022-12-23T16:31:18.728Z,10.48
2022-12-23T16:33:49.393Z,12.52
2022-12-23T16:36:26.372Z,12.43
2022-12-23T16:39:05.935Z,13.48
2022-12-23T16:41:33.959Z,11.50
2022-12-23T16:44:01.365Z,12.77
2022-12-23T16:47:06.001Z,12.02
2022-12-23T16:50:10.449Z,8.82
2022-12-23T16:56:37.394Z,11.35
2022-12-23T17:05:49.298Z,10.40
2022-12-23T17:08:16.327Z,16.88
2022-12-23T17:10:47.048Z,15.50
2022-12-23T17:13:17.572Z,15.38
2022-12-23T17:18:29.965Z,13.85
2022-12-23T17:20:57.020Z,42.50
2022-12-23T17:23:30.139Z,50.00
2022-12-23T17:28:42.278Z,13.82
2022-12-23T17:31:14.757Z,19.38
2022-12-23T17:33:43.412Z,13.52
2022-12-23T17:36:11.866Z,12.27
2022-12-23T17:38:39.073Z,20.30
2022-12-23T17:43:51.042Z,13.48
2022-12-23T17:50:17.915Z,21.50
2022-12-23T17:56:44.755Z,11.38
2022-12-23T17:59:49.299Z,17.73
2022-12-23T18:02:29.636Z,15.23
2022-12-23T18:04:56.776Z,16.98
2022-12-23T18:13:02.889Z,18.63
2022-12-23T18:15:41.829Z,17.60
2022-12-23T18:18:27.461Z,17.00
2022-12-23T18:23:45.064Z,9.38
2022-12-23T18:26:50.045Z,12.15
2022-12-23T18:33:16.862Z,15.80
2022-12-23T18:36:22.222Z,14.23
2022-12-23T18:39:26.884Z,12.00
2022-12-23T18:42:31.308Z,11.18
2022-12-23T18:44:58.423Z,8.07
2022-12-23T18:47:25.493Z,16.10
2022-12-23T18:49:52.560Z,9.80
2022-12-23T18:52:19.663Z,10.43
2022-12-23T18:55:24.254Z,11.75
2022-12-23T18:58:28.738Z,11.95
2022-12-23T19:04:55.053Z,13.23
2022-12-23T19:11:21.876Z,13.32
2022-12-23T19:17:48.931Z,12.15
2022-12-23T19:20:53.430Z,12.55
2022-12-23T19:23:58.662Z,16.17
2022-12-23T19:26:25.952Z,9.18
2022-12-23T19:28:53.121Z,13.00
2022-12-23T19:31:20.431Z,11.80
2022-12-23T19:33:48.116Z,11.30
2022-12-23T19:36:22.997Z,13.32
2022-12-23T19:41:36.186Z,10.15
2022-12-23T19:44:03.952Z,11.63
2022-12-23T19:46:31.273Z,12.93
2022-12-23T19:51:43.270Z,13.73
2022-12-23T19:54:10.369Z,10.05
2022-12-23T19:59:59.617Z,8.55
2022-12-23T20:03:04.056Z,10.95
2022-12-23T20:06:08.282Z,10.77
2022-12-23T20:09:12.965Z,11.40
2022-12-23T20:11:43.406Z,13.55
2022-12-23T20:22:24.881Z,8.80
2022-12-23T20:24:51.954Z,12.73
2022-12-23T20:27:56.344Z,13.68
2022-12-23T20:31:01.317Z,10.55
2022-12-23T20:34:06.163Z,13.38
2022-12-23T20:40:33.859Z,10.00
2022-12-23T20:43:38.411Z,13.85
2022-12-23T20:46:07.572Z,12.88
2022-12-23T20:48:35.310Z,11.15
2022-12-23T20:56:38.660Z,12.68
2022-12-23T20:59:05.847Z,13.60
2022-12-23T21:08:19.409Z,13.68
2022-12-23T21:11:23.975Z,8.35
2022-12-23T21:14:28.902Z,10.82
2022-12-23T21:20:55.963Z,11.73
2022-12-23T21:27:22.083Z,11.70
2022-12-23T21:30:26.356Z,10.55
2022-12-23T21:33:30.190Z,12.32
2022-12-23T21:39:24.349Z,8.07
2022-12-23T21:45:13.888Z,11.35
2022-12-23T21:51:41.114Z,10.60
2022-12-23T21:54:10.127Z,11.27
2022-12-23T21:59:22.688Z,9.88
2022-12-23T22:01:51.083Z,11.25
2022-12-23T22:04:18.401Z,10.20
2022-12-23T22:06:45.865Z,10.60
2022-12-23T22:09:18.513Z,13.40
2022-12-23T22:14:30.875Z,11.70
2022-12-23T22:19:42.233Z,43.00
2022-12-23T22:22:09.248Z,10.27
2022-12-23T22:25:13.826Z,11.23
2022-12-23T22:28:18.580Z,13.27
2022-12-23T22:31:23.153Z,8.93
2022-12-23T22:34:27.697Z,11.13
2022-12-23T22:36:54.737Z,9.25
2022-12-23T22:39:22.227Z,11.65
2022-12-23T22:41:51.146Z,8.25
2022-12-23T22:44:19.247Z,9.98
2022-12-23T22:46:46.878Z,9.20
2022-12-23T22:49:15.360Z,9.35
2022-12-23T22:51:43.574Z,10.32
2022-12-23T22:54:11.043Z,9.68
2022-12-23T22:57:15.592Z,9.70
2022-12-23T23:00:19.867Z,8.75
2022-12-23T23:03:25.577Z,6.07
2022-12-23T23:06:30.404Z,10.50
2022-12-23T23:09:34.965Z,8.40
2022-12-23T23:12:39.355Z,8.52
2022-12-23T23:15:43.858Z,11.73
2022-12-23T23:18:48.326Z,11.68
2022-12-23T23:21:53.691Z,10.02
2022-12-23T23:24:58.548Z,20.80
2022-12-23T23:28:03.267Z,12.02
2022-12-23T23:34:32.725Z,13.77
2022-12-23T23:37:37.204Z,33.33
2022-12-23T23:40:04.989Z,18.98
2022-12-23T23:42:32.083Z,15.27
2022-12-23T23:44:59.129Z,16.77
2022-12-23T23:47:26.232Z,14.80
2022-12-23T23:49:53.520Z,18.10
2022-12-23T23:52:58.193Z,17.48
2022-12-23T23:56:02.677Z,17.63
2022-12-23T23:59:07.669Z,16.67
